createdAt,value
2022-11-28T00:00:06.062Z,99508.50
2022-11-28T00:00:16.001Z,99504.52
2022-11-28T00:00:26.019Z,99505.02
2022-11-28T00:00:35.961Z,99503.64
2022-11-28T00:00:45.952Z,99502.58
2022-11-28T00:00:55.960Z,99506.52
2022-11-28T00:01:06.041Z,99502.30
2022-11-28T00:01:15.977Z,99503.38
2022-11-28T00:01:26.081Z,99504.52
2022-11-28T00:01:35.992Z,99511.32
2022-11-28T00:01:46.096Z,99506.16
2022-11-28T00:01:56.123Z,99509.23
2022-11-28T00:02:06.100Z,99504.66
2022-11-28T00:02:16.204Z,99505.90
2022-11-28T00:02:26.187Z,99503.92
2022-11-28T00:02:36.151Z,99506.77
2022-11-28T00:02:46.186Z,99505.73
2022-11-28T00:02:56.073Z,99507.05
2022-11-28T00:03:06.102Z,99512.14
2022-11-28T00:03:16.134Z,99504.00
2022-11-28T00:03:26.084Z,99502.11
2022-11-28T00:03:36.120Z,99504.91
2022-11-28T00:03:46.047Z,99497.24
2022-11-28T00:03:55.976Z,99500.45
2022-11-28T00:04:06.049Z,99502.11
2022-11-28T00:04:16.081Z,99501.27
2022-11-28T00:04:25.966Z,99504.58
2022-11-28T00:04:36.026Z,99503.76
2022-11-28T00:04:46.018Z,99507.19
2022-11-28T00:04:55.960Z,99500.78
2022-11-28T00:05:05.991Z,99504.17
2022-11-28T00:05:16.021Z,99498.42
2022-11-28T00:05:26.024Z,99499.81
2022-11-28T00:05:36.074Z,99497.67
2022-11-28T00:05:47.168Z,99504.72
2022-11-28T00:05:56.071Z,99501.05
2022-11-28T00:06:06.050Z,99507.29
2022-11-28T00:06:15.993Z,99504.50
2022-11-28T00:06:25.957Z,99502.66
2022-11-28T00:06:36.070Z,99505.64
2022-11-28T00:06:46.005Z,99506.11
2022-11-28T00:06:56.077Z,99511.12
2022-11-28T00:07:06.042Z,99508.64
2022-11-28T00:07:16.033Z,99508.70
2022-11-28T00:07:26.102Z,99506.61
2022-11-28T00:07:36.174Z,99505.95
2022-11-28T00:07:46.050Z,99504.86
2022-11-28T00:07:56.087Z,99506.66
2022-11-28T00:08:05.971Z,99503.30
2022-11-28T00:08:15.974Z,99506.17
2022-11-28T00:08:26.026Z,99512.94
2022-11-28T00:08:35.993Z,99508.83
2022-11-28T00:08:46.051Z,99507.02
2022-11-28T00:08:56.072Z,99500.09
2022-11-28T00:09:06.051Z,99494.83
2022-11-28T00:09:15.997Z,99497.30
2022-11-28T00:09:25.989Z,99502.28
2022-11-28T00:09:36.002Z,99500.78
2022-11-28T00:09:46.042Z,99497.79
2022-11-28T00:09:56.035Z,99500.20
2022-11-28T00:10:06.054Z,99498.31
2022-11-28T00:10:16.005Z,99494.12
2022-11-28T00:10:26.075Z,99489.59
2022-11-28T00:10:36.041Z,99493.67
2022-11-28T00:10:46.075Z,99499.79
2022-11-28T00:10:56.054Z,99505.27
2022-11-28T00:11:05.978Z,99492.50
2022-11-28T00:11:15.986Z,99495.24
2022-11-28T00:11:26.011Z,99495.66
2022-11-28T00:11:35.957Z,99487.73
2022-11-28T00:11:45.977Z,99495.90
2022-11-28T00:11:56.025Z,99493.30
2022-11-28T00:12:06.072Z,99488.17
2022-11-28T00:12:15.952Z,99488.56
2022-11-28T00:12:26.064Z,99492.12
2022-11-28T00:12:35.970Z,99486.75
2022-11-28T00:12:46.056Z,99488.94
2022-11-28T00:12:56.072Z,99493.02
2022-11-28T00:13:05.970Z,99496.80
2022-11-28T00:13:16.082Z,99486.28
2022-11-28T00:13:25.990Z,99490.50
2022-11-28T00:13:36.051Z,99489.22
2022-11-28T00:13:45.975Z,99485.73
2022-11-28T00:13:55.970Z,99485.05
2022-11-28T00:14:06.052Z,99486.01
2022-11-28T00:14:16.076Z,99482.94
2022-11-28T00:14:26.059Z,99486.45
2022-11-28T00:14:36.038Z,99486.03
2022-11-28T00:14:46.077Z,99490.86
2022-11-28T00:14:56.030Z,99483.21
2022-11-28T00:15:06.026Z,99475.43
2022-11-28T00:15:16.067Z,99480.83
2022-11-28T00:15:26.020Z,99480.83
2022-11-28T00:15:36.085Z,99484.31
2022-11-28T00:15:46.026Z,99481.84
2022-11-28T00:15:56.123Z,99479.38
2022-11-28T00:16:06.128Z,99476.58
2022-11-28T00:16:16.134Z,99483.66
2022-11-28T00:16:26.089Z,99480.80
2022-11-28T00:16:36.174Z,99483.45
2022-11-28T00:16:46.022Z,99486.25
2022-11-28T00:16:55.951Z,99493.62
2022-11-28T00:17:05.965Z,99493.30
2022-11-28T00:17:16.075Z,99484.31
2022-11-28T00:17:26.007Z,99484.15
2022-11-28T00:17:35.951Z,99486.23
2022-11-28T00:17:45.967Z,99486.17
2022-11-28T00:17:56.068Z,99480.03
2022-11-28T00:18:05.969Z,99491.66
2022-11-28T00:18:16.040Z,99484.70
2022-11-28T00:18:25.971Z,99484.70
2022-11-28T00:18:35.997Z,99480.80
2022-11-28T00:18:46.022Z,99484.58
2022-11-28T00:18:56.014Z,99480.39
2022-11-28T00:19:06.084Z,99482.75
2022-11-28T00:19:15.963Z,99483.55
2022-11-28T00:19:26.008Z,99483.22
2022-11-28T00:19:35.989Z,99481.73
2022-11-28T00:19:46.052Z,99489.13
2022-11-28T00:19:56.005Z,99478.94
2022-11-28T00:20:06.065Z,99482.15
2022-11-28T00:20:15.995Z,99479.16
2022-11-28T00:20:25.999Z,99483.88
2022-11-28T00:20:35.984Z,99482.17
2022-11-28T00:20:46.040Z,99487.93
2022-11-28T00:20:56.007Z,99484.25
2022-11-28T00:21:06.075Z,99479.03
2022-11-28T00:21:15.957Z,99483.30
2022-11-28T00:21:26.105Z,99482.50
2022-11-28T00:21:36.013Z,99485.95
2022-11-28T00:21:46.046Z,99477.80
2022-11-28T00:21:56.012Z,99478.56
2022-11-28T00:22:06.071Z,99485.13
2022-11-28T00:22:16.022Z,99487.69
2022-11-28T00:22:26.026Z,99482.25
2022-11-28T00:22:36.013Z,99479.95
2022-11-28T00:22:46.008Z,99477.91
2022-11-28T00:22:56.055Z,99482.78
2022-11-28T00:23:05.953Z,99483.00
2022-11-28T00:23:15.955Z,99480.12
2022-11-28T00:23:25.961Z,99481.95
2022-11-28T00:23:36.078Z,99480.04
2022-11-28T00:23:45.965Z,99489.79
2022-11-28T00:23:56.036Z,99479.71
2022-11-28T00:24:06.079Z,99481.57
2022-11-28T00:24:15.958Z,99480.91
2022-11-28T00:24:25.974Z,99484.86
2022-11-28T00:24:36.045Z,99485.58
2022-11-28T00:24:45.963Z,99485.58
2022-11-28T00:24:56.043Z,99479.05
2022-11-28T00:25:06.054Z,99481.69
2022-11-28T00:25:16.075Z,99481.59
2022-11-28T00:25:26.051Z,99485.41
2022-11-28T00:25:36.017Z,99481.05
2022-11-28T00:25:46.015Z,99479.52
2022-11-28T00:25:56.010Z,99481.95
2022-11-28T00:26:06.044Z,99479.00
2022-11-28T00:26:15.959Z,99479.66
2022-11-28T00:26:26.000Z,99480.75
2022-11-28T00:26:35.958Z,99481.14
2022-11-28T00:26:46.085Z,99476.56
2022-11-28T00:26:55.970Z,99478.83
2022-11-28T00:27:06.066Z,99475.73
2022-11-28T00:27:16.109Z,99477.16
2022-11-28T00:27:26.055Z,99478.28
2022-11-28T00:27:36.009Z,99478.45
2022-11-28T00:27:46.011Z,99484.72
2022-11-28T00:27:55.969Z,99478.56
2022-11-28T00:28:06.080Z,99476.80
2022-11-28T00:28:16.065Z,99481.52
2022-11-28T00:28:26.013Z,99480.51
2022-11-28T00:28:36.061Z,99475.68
2022-11-28T00:28:46.041Z,99479.41
2022-11-28T00:28:55.953Z,99477.03
2022-11-28T00:29:05.949Z,99480.70
2022-11-28T00:29:16.003Z,99477.49
2022-11-28T00:29:26.005Z,99477.05
2022-11-28T00:29:36.076Z,99476.67
2022-11-28T00:29:45.999Z,99473.66
2022-11-28T00:29:55.962Z,99477.92
2022-11-28T00:30:06.082Z,99473.93
2022-11-28T00:30:16.016Z,99471.49
2022-11-28T00:30:26.023Z,99472.37
2022-11-28T00:30:36.099Z,99467.82
2022-11-28T00:30:46.074Z,99468.91
2022-11-28T00:30:56.048Z,99474.09
2022-11-28T00:31:06.056Z,99476.55
2022-11-28T00:31:16.074Z,99473.98
2022-11-28T00:31:26.130Z,99476.39
2022-11-28T00:31:36.210Z,99473.44
2022-11-28T00:31:45.993Z,99476.89
2022-11-28T00:31:56.100Z,99472.67
2022-11-28T00:32:06.128Z,99472.72
2022-11-28T00:32:16.189Z,99471.88
2022-11-28T00:32:26.077Z,99470.97
2022-11-28T00:32:36.061Z,99468.12
2022-11-28T00:32:46.080Z,99473.52
2022-11-28T00:32:56.011Z,99473.52
2022-11-28T00:33:05.954Z,99474.84
2022-11-28T00:33:16.016Z,99481.66
2022-11-28T00:33:25.968Z,99482.99
2022-11-28T00:33:35.996Z,99473.22
2022-11-28T00:33:46.037Z,99480.75
2022-11-28T00:33:56.078Z,99479.48
2022-11-28T00:34:06.037Z,99483.84
2022-11-28T00:34:16.079Z,99479.67
2022-11-28T00:34:26.026Z,99477.38
2022-11-28T00:34:36.046Z,99479.70
2022-11-28T00:34:46.046Z,99480.20
2022-11-28T00:34:56.058Z,99473.77
2022-11-28T00:35:06.007Z,99478.75
2022-11-28T00:35:16.016Z,99476.44
2022-11-28T00:35:25.991Z,99476.36
2022-11-28T00:35:35.954Z,99482.36
2022-11-28T00:35:46.081Z,99477.05
2022-11-28T00:35:56.045Z,99480.11
2022-11-28T00:36:06.012Z,99476.30
2022-11-28T00:36:16.036Z,99474.50
2022-11-28T00:36:25.955Z,99474.61
2022-11-28T00:36:36.029Z,99477.83
2022-11-28T00:36:46.031Z,99474.38
2022-11-28T00:36:56.037Z,99480.16
2022-11-28T00:37:06.056Z,99474.27
2022-11-28T00:37:16.006Z,99474.44
2022-11-28T00:37:25.992Z,99477.58
2022-11-28T00:37:35.978Z,99478.98
2022-11-28T00:37:46.057Z,99482.38
2022-11-28T00:37:55.964Z,99476.62
2022-11-28T00:38:06.016Z,99476.98
2022-11-28T00:38:16.005Z,99483.53
2022-11-28T00:38:26.010Z,99480.41
2022-11-28T00:38:35.964Z,99477.30
2022-11-28T00:38:46.007Z,99478.92
2022-11-28T00:38:56.074Z,99477.44
2022-11-28T00:39:06.073Z,99481.17
2022-11-28T00:39:16.025Z,99483.09
2022-11-28T00:39:26.055Z,99473.55
2022-11-28T00:39:36.039Z,99477.96
2022-11-28T00:39:46.004Z,99486.05
2022-11-28T00:39:55.955Z,99481.53
2022-11-28T00:40:06.082Z,99483.50
2022-11-28T00:40:15.959Z,99481.85
2022-11-28T00:40:25.951Z,99478.30
2022-11-28T00:40:36.035Z,99485.97
2022-11-28T00:40:46.044Z,99479.55
2022-11-28T00:40:56.015Z,99475.33
2022-11-28T00:41:06.038Z,99478.67
2022-11-28T00:41:15.959Z,99478.27
2022-11-28T00:41:25.957Z,99474.70
2022-11-28T00:41:35.962Z,99476.02
2022-11-28T00:41:45.960Z,99477.93
2022-11-28T00:41:55.988Z,99476.38
2022-11-28T00:42:06.017Z,99478.84
2022-11-28T00:42:16.021Z,99480.51
2022-11-28T00:42:26.031Z,99476.97
2022-11-28T00:42:36.024Z,99467.77
2022-11-28T00:42:46.043Z,99470.66
2022-11-28T00:42:55.962Z,99473.81
2022-11-28T00:43:06.067Z,99476.77
2022-11-28T00:43:15.951Z,99473.79
2022-11-28T00:43:26.077Z,99476.20
2022-11-28T00:43:36.012Z,99474.14
2022-11-28T00:43:45.971Z,99471.16
2022-11-28T00:43:55.981Z,99472.17
2022-11-28T00:44:05.986Z,99469.19
2022-11-28T00:44:16.065Z,99472.00
2022-11-28T00:44:26.075Z,99473.30
2022-11-28T00:44:36.002Z,99467.19
2022-11-28T00:44:46.041Z,99468.28
2022-11-28T00:44:56.073Z,99471.27
2022-11-28T00:45:06.054Z,99475.66
2022-11-28T00:45:16.003Z,99473.60
2022-11-28T00:45:25.995Z,99472.07
2022-11-28T00:45:36.071Z,99472.97
2022-11-28T00:45:46.097Z,99470.09
2022-11-28T00:45:56.212Z,99472.18
2022-11-28T00:46:06.151Z,99469.39
2022-11-28T00:46:16.051Z,99466.75
2022-11-28T00:46:25.975Z,99468.73
2022-11-28T00:46:36.018Z,99470.38
2022-11-28T00:46:46.024Z,99470.62
2022-11-28T00:46:56.088Z,99470.84
2022-11-28T00:47:05.952Z,99469.97
2022-11-28T00:47:16.004Z,99466.92
2022-11-28T00:47:26.016Z,99465.61
2022-11-28T00:47:36.039Z,99466.09
2022-11-28T00:47:45.988Z,99465.88
2022-11-28T00:47:56.073Z,99457.88
2022-11-28T00:48:06.079Z,99461.88
2022-11-28T00:48:16.014Z,99459.55
2022-11-28T00:48:26.020Z,99459.33
2022-11-28T00:48:36.004Z,99458.83
2022-11-28T00:48:46.016Z,99460.42
2022-11-28T00:48:55.981Z,99457.35
2022-11-28T00:49:05.990Z,99461.98
2022-11-28T00:49:16.011Z,99461.24
2022-11-28T00:49:25.980Z,99455.84
2022-11-28T00:49:35.989Z,99457.73
2022-11-28T00:49:45.995Z,99452.86
2022-11-28T00:49:56.047Z,99459.30
2022-11-28T00:50:06.039Z,99462.39
2022-11-28T00:50:15.957Z,99458.80
2022-11-28T00:50:26.067Z,99457.22
2022-11-28T00:50:35.954Z,99456.50
2022-11-28T00:50:46.013Z,99456.30
2022-11-28T00:50:55.986Z,99468.25
2022-11-28T00:51:05.981Z,99468.14
2022-11-28T00:51:16.034Z,99464.88
2022-11-28T00:51:25.991Z,99470.14
2022-11-28T00:51:36.064Z,99456.19
2022-11-28T00:51:46.067Z,99455.92
2022-11-28T00:51:56.043Z,99464.77
2022-11-28T00:52:05.950Z,99458.19
2022-11-28T00:52:15.976Z,99453.15
2022-11-28T00:52:26.019Z,99450.25
2022-11-28T00:52:35.982Z,99452.44
2022-11-28T00:52:45.963Z,99452.60
2022-11-28T00:52:56.008Z,99457.78
2022-11-28T00:53:05.976Z,99457.84
2022-11-28T00:53:16.066Z,99455.53
2022-11-28T00:53:26.055Z,99454.77
2022-11-28T00:53:36.000Z,99455.34
2022-11-28T00:53:46.004Z,99455.17
2022-11-28T00:53:56.060Z,99452.56
2022-11-28T00:54:05.978Z,99455.61
2022-11-28T00:54:16.002Z,99454.95
2022-11-28T00:54:26.040Z,99452.64
2022-11-28T00:54:36.019Z,99459.88
2022-11-28T00:54:46.072Z,99456.02
2022-11-28T00:54:55.988Z,99446.97
2022-11-28T00:55:06.058Z,99454.07
2022-11-28T00:55:15.957Z,99455.28
2022-11-28T00:55:26.045Z,99455.52
2022-11-28T00:55:35.963Z,99451.74
2022-11-28T00:55:45.952Z,99449.27
2022-11-28T00:55:56.083Z,99448.34
2022-11-28T00:56:06.031Z,99449.00
2022-11-28T00:56:15.982Z,99451.13
2022-11-28T00:56:25.982Z,99452.28
2022-11-28T00:56:36.078Z,99446.16
2022-11-28T00:56:46.020Z,99446.45
2022-11-28T00:56:56.020Z,99449.11
2022-11-28T00:57:06.026Z,99445.33
2022-11-28T00:57:15.967Z,99449.33
2022-11-28T00:57:26.018Z,99449.44
2022-11-28T00:57:36.012Z,99443.36
2022-11-28T00:57:46.003Z,99448.62
2022-11-28T00:57:56.079Z,99443.84
2022-11-28T00:58:06.048Z,99447.38
2022-11-28T00:58:15.983Z,99448.45
2022-11-28T00:58:25.990Z,99449.44
2022-11-28T00:58:36.076Z,99448.02
2022-11-28T00:58:46.014Z,99443.94
2022-11-28T00:58:56.067Z,99446.78
2022-11-28T00:59:06.024Z,99442.09
2022-11-28T00:59:16.036Z,99442.67
2022-11-28T00:59:26.069Z,99447.34
2022-11-28T00:59:36.033Z,99442.27
2022-11-28T00:59:45.978Z,99443.47
2022-11-28T00:59:56.001Z,99444.73
2022-11-28T01:00:06.026Z,99435.64
2022-11-28T01:00:15.952Z,99438.64
2022-11-28T01:00:26.027Z,99440.92
2022-11-28T01:00:36.034Z,99440.84
2022-11-28T01:00:46.098Z,99441.99
2022-11-28T01:00:56.126Z,99442.88
2022-11-28T01:01:06.097Z,99441.09
2022-11-28T01:01:16.148Z,99440.19
2022-11-28T01:01:26.081Z,99438.41
2022-11-28T01:01:36.192Z,99438.12
2022-11-28T01:01:46.205Z,99437.28
2022-11-28T01:01:56.110Z,99441.58
2022-11-28T01:02:06.123Z,99437.03
2022-11-28T01:02:16.070Z,99436.46
2022-11-28T01:02:26.084Z,99436.32
2022-11-28T01:02:36.077Z,99435.74
2022-11-28T01:02:46.000Z,99438.46
2022-11-28T01:02:56.064Z,99436.56
2022-11-28T01:03:06.079Z,99441.09
2022-11-28T01:03:15.990Z,99440.59
2022-11-28T01:03:26.029Z,99436.81
2022-11-28T01:03:36.047Z,99434.72
2022-11-28T01:03:45.998Z,99431.11
2022-11-28T01:03:56.060Z,99433.95
2022-11-28T01:04:05.980Z,99435.19
2022-11-28T01:04:15.963Z,99436.04
2022-11-28T01:04:26.039Z,99443.44
2022-11-28T01:04:36.030Z,99442.41
2022-11-28T01:04:46.072Z,99433.13
2022-11-28T01:04:56.057Z,99432.48
2022-11-28T01:05:06.053Z,99434.84
2022-11-28T01:05:16.042Z,99431.33
2022-11-28T01:05:25.968Z,99429.84
2022-11-28T01:05:35.979Z,99431.08
2022-11-28T01:05:45.994Z,99431.85
2022-11-28T01:05:56.067Z,99433.20
2022-11-28T01:06:05.958Z,99434.98
2022-11-28T01:06:16.013Z,99434.59
2022-11-28T01:06:25.953Z,99425.28
2022-11-28T01:06:35.975Z,99422.95
2022-11-28T01:06:45.979Z,99423.08
2022-11-28T01:06:56.018Z,99421.49
2022-11-28T01:07:06.051Z,99422.31
2022-11-28T01:07:15.991Z,99425.38
2022-11-28T01:07:26.041Z,99421.60
2022-11-28T01:07:36.141Z,99422.67
2022-11-28T01:07:46.033Z,99422.20
2022-11-28T01:07:56.048Z,99427.16
2022-11-28T01:08:06.040Z,99423.98
2022-11-28T01:08:15.996Z,99423.88
2022-11-28T01:08:25.959Z,99416.69
2022-11-28T01:08:36.089Z,99420.86
2022-11-28T01:08:46.046Z,99424.17
2022-11-28T01:08:55.952Z,99424.31
2022-11-28T01:09:05.957Z,99418.97
2022-11-28T01:09:15.953Z,99418.14
2022-11-28T01:09:26.018Z,99423.41
2022-11-28T01:09:35.985Z,99422.50
2022-11-28T01:09:46.036Z,99415.77
2022-11-28T01:09:55.959Z,99415.59
2022-11-28T01:10:06.082Z,99411.81
2022-11-28T01:10:16.070Z,99414.48
2022-11-28T01:10:26.067Z,99413.00
2022-11-28T01:10:35.990Z,99418.10
2022-11-28T01:10:46.034Z,99413.83
2022-11-28T01:10:56.073Z,99413.00
2022-11-28T01:11:06.001Z,99417.45
2022-11-28T01:11:16.028Z,99415.30
2022-11-28T01:11:25.991Z,99410.45
2022-11-28T01:11:36.075Z,99415.38
2022-11-28T01:11:46.006Z,99414.87
2022-11-28T01:11:55.974Z,99406.92
2022-11-28T01:12:06.008Z,99414.23
2022-11-28T01:12:16.037Z,99416.91
2022-11-28T01:12:26.027Z,99414.77
2022-11-28T01:12:36.063Z,99414.39
2022-11-28T01:12:45.962Z,99411.47
2022-11-28T01:12:55.953Z,99408.59
2022-11-28T01:13:06.025Z,99408.59
2022-11-28T01:13:16.048Z,99416.06
2022-11-28T01:13:26.080Z,99414.77
2022-11-28T01:13:36.037Z,99413.22
2022-11-28T01:13:45.999Z,99415.59
2022-11-28T01:13:56.063Z,99414.45
2022-11-28T01:14:05.970Z,99410.42
2022-11-28T01:14:16.022Z,99408.53
2022-11-28T01:14:26.019Z,99417.78
2022-11-28T01:14:36.063Z,99417.76
2022-11-28T01:14:46.008Z,99415.38
2022-11-28T01:14:56.032Z,99415.32
2022-11-28T01:15:06.036Z,99413.02
2022-11-28T01:15:16.038Z,99411.45
2022-11-28T01:15:25.966Z,99411.29
2022-11-28T01:15:36.073Z,99411.51
2022-11-28T01:15:45.996Z,99416.03
2022-11-28T01:15:56.036Z,99409.53
2022-11-28T01:16:06.103Z,99411.18
2022-11-28T01:16:16.146Z,99412.77
2022-11-28T01:16:26.146Z,99412.41
2022-11-28T01:16:36.117Z,99416.63
2022-11-28T01:16:46.050Z,99414.17
2022-11-28T01:16:56.060Z,99412.33
2022-11-28T01:17:05.955Z,99412.17
2022-11-28T01:17:15.976Z,99410.47
2022-11-28T01:17:26.009Z,99419.02
2022-11-28T01:17:36.059Z,99421.48
2022-11-28T01:17:46.105Z,99417.12
2022-11-28T01:17:55.972Z,99418.00
2022-11-28T01:18:06.066Z,99418.23
2022-11-28T01:18:16.073Z,99412.09
2022-11-28T01:18:26.068Z,99412.19
2022-11-28T01:18:36.005Z,99416.42
2022-11-28T01:18:45.959Z,99417.29
2022-11-28T01:18:55.964Z,99413.84
2022-11-28T01:19:05.973Z,99414.31
2022-11-28T01:19:16.320Z,99416.91
2022-11-28T01:19:25.969Z,99419.07
2022-11-28T01:19:36.044Z,99418.11
2022-11-28T01:19:45.979Z,99419.59
2022-11-28T01:19:56.002Z,99418.17
2022-11-28T01:20:06.042Z,99419.42
2022-11-28T01:20:16.060Z,99418.44
2022-11-28T01:20:26.031Z,99419.67
2022-11-28T01:20:35.991Z,99420.83
2022-11-28T01:20:46.048Z,99415.98
2022-11-28T01:20:56.053Z,99416.88
2022-11-28T01:21:05.977Z,99416.47
2022-11-28T01:21:15.968Z,99416.88
2022-11-28T01:21:25.961Z,99416.55
2022-11-28T01:21:36.019Z,99417.10
2022-11-28T01:21:46.063Z,99417.18
2022-11-28T01:21:56.073Z,99420.80
2022-11-28T01:22:06.003Z,99422.22
2022-11-28T01:22:16.006Z,99420.47
2022-11-28T01:22:25.967Z,99425.12
2022-11-28T01:22:35.972Z,99423.12
2022-11-28T01:22:46.063Z,99421.98
2022-11-28T01:22:56.058Z,99421.05
2022-11-28T01:23:05.969Z,99416.22
2022-11-28T01:23:15.967Z,99424.36
2022-11-28T01:23:26.072Z,99420.50
2022-11-28T01:23:36.023Z,99421.73
2022-11-28T01:23:46.032Z,99419.02
2022-11-28T01:23:55.954Z,99420.74
2022-11-28T01:24:05.997Z,99418.50
2022-11-28T01:24:16.041Z,99417.78
2022-11-28T01:24:26.058Z,99426.17
2022-11-28T01:24:36.024Z,99419.41
2022-11-28T01:24:46.018Z,99419.67
2022-11-28T01:24:56.028Z,99419.76
2022-11-28T01:25:05.988Z,99419.55
2022-11-28T01:25:16.035Z,99418.42
2022-11-28T01:25:26.072Z,99419.88
2022-11-28T01:25:35.987Z,99423.35
2022-11-28T01:25:45.949Z,99420.78
2022-11-28T01:25:55.957Z,99418.97
2022-11-28T01:26:06.013Z,99424.06
2022-11-28T01:26:15.959Z,99425.71
2022-11-28T01:26:26.002Z,99424.95
2022-11-28T01:26:36.080Z,99421.49
2022-11-28T01:26:46.056Z,99418.86
2022-11-28T01:26:56.054Z,99418.73
2022-11-28T01:27:06.083Z,99416.89
2022-11-28T01:27:16.023Z,99414.61
2022-11-28T01:27:26.007Z,99419.05
2022-11-28T01:27:35.993Z,99420.70
2022-11-28T01:27:46.009Z,99421.68
2022-11-28T01:27:55.957Z,99418.56
2022-11-28T01:28:05.970Z,99419.05
2022-11-28T01:28:16.093Z,99418.86
2022-11-28T01:28:26.015Z,99420.12
2022-11-28T01:28:36.003Z,99420.81
2022-11-28T01:28:45.984Z,99417.09
2022-11-28T01:28:55.963Z,99422.38
2022-11-28T01:29:05.962Z,99417.38
2022-11-28T01:29:16.075Z,99418.47
2022-11-28T01:29:25.998Z,99416.91
2022-11-28T01:29:36.082Z,99418.64
2022-11-28T01:29:45.970Z,99423.14
2022-11-28T01:29:56.076Z,99415.80
2022-11-28T01:30:06.029Z,99422.68
2022-11-28T01:30:16.009Z,99419.12
2022-11-28T01:30:26.061Z,99419.10
2022-11-28T01:30:35.986Z,99421.40
2022-11-28T01:30:46.045Z,99421.78
2022-11-28T01:30:56.013Z,99420.88
2022-11-28T01:31:06.158Z,99417.21
2022-11-28T01:31:16.023Z,99416.86
2022-11-28T01:31:26.083Z,99417.90
2022-11-28T01:31:36.041Z,99416.89
2022-11-28T01:31:46.063Z,99416.34
2022-11-28T01:31:56.104Z,99416.86
2022-11-28T01:32:06.010Z,99415.44
2022-11-28T01:32:15.987Z,99416.98
2022-11-28T01:32:26.007Z,99413.75
2022-11-28T01:32:35.967Z,99416.52
2022-11-28T01:32:46.042Z,99416.38
2022-11-28T01:32:55.950Z,99414.93
2022-11-28T01:33:05.954Z,99409.48
2022-11-28T01:33:15.952Z,99412.33
2022-11-28T01:33:26.003Z,99412.66
2022-11-28T01:33:36.000Z,99410.08
2022-11-28T01:33:45.965Z,99413.36
2022-11-28T01:33:55.983Z,99414.11
2022-11-28T01:34:06.100Z,99406.55
2022-11-28T01:34:15.985Z,99409.17
2022-11-28T01:34:25.990Z,99408.27
2022-11-28T01:34:35.956Z,99408.66
2022-11-28T01:34:45.990Z,99410.79
2022-11-28T01:34:56.092Z,99406.02
2022-11-28T01:35:06.072Z,99409.55
2022-11-28T01:35:15.955Z,99407.88
2022-11-28T01:35:25.984Z,99411.27
2022-11-28T01:35:35.994Z,99408.83
2022-11-28T01:35:45.966Z,99408.34
2022-11-28T01:35:56.029Z,99405.30
2022-11-28T01:36:05.990Z,99404.31
2022-11-28T01:36:15.977Z,99404.03
2022-11-28T01:36:25.980Z,99402.55
2022-11-28T01:36:35.980Z,99401.48
2022-11-28T01:36:46.073Z,99403.38
2022-11-28T01:36:56.071Z,99401.76
2022-11-28T01:37:05.979Z,99402.72
2022-11-28T01:37:16.026Z,99406.22
2022-11-28T01:37:25.979Z,99402.52
2022-11-28T01:37:35.962Z,99403.59
2022-11-28T01:37:46.056Z,99404.93
2022-11-28T01:37:55.999Z,99408.46
2022-11-28T01:38:06.000Z,99408.22
2022-11-28T01:38:16.063Z,99405.20
2022-11-28T01:38:25.961Z,99404.73
2022-11-28T01:38:36.019Z,99401.00
2022-11-28T01:38:46.082Z,99403.03
2022-11-28T01:38:56.029Z,99405.33
2022-11-28T01:39:05.966Z,99406.06
2022-11-28T01:39:16.056Z,99400.39
2022-11-28T01:39:26.003Z,99404.12
2022-11-28T01:39:35.996Z,99410.15
2022-11-28T01:39:46.066Z,99406.50
2022-11-28T01:39:56.031Z,99414.03
2022-11-28T01:40:05.983Z,99409.16
2022-11-28T01:40:15.995Z,99408.72
2022-11-28T01:40:25.980Z,99410.03
2022-11-28T01:40:35.996Z,99408.63
2022-11-28T01:40:45.969Z,99411.34
2022-11-28T01:40:56.085Z,99411.56
2022-11-28T01:41:05.976Z,99406.27
2022-11-28T01:41:16.015Z,99405.27
2022-11-28T01:41:26.065Z,99401.19
2022-11-28T01:41:35.960Z,99402.91
2022-11-28T01:41:45.975Z,99399.00
2022-11-28T01:41:55.966Z,99404.04
2022-11-28T01:42:05.964Z,99404.84
2022-11-28T01:42:16.049Z,99403.52
2022-11-28T01:42:26.033Z,99404.51
2022-11-28T01:42:36.075Z,99400.02
2022-11-28T01:42:45.961Z,99401.44
2022-11-28T01:42:56.013Z,99397.60
2022-11-28T01:43:06.033Z,99397.72
2022-11-28T01:43:16.038Z,99396.62
2022-11-28T01:43:26.075Z,99398.59
2022-11-28T01:43:36.059Z,99396.89
2022-11-28T01:43:46.076Z,99398.75
2022-11-28T01:43:56.067Z,99394.64
2022-11-28T01:44:06.028Z,99398.26
2022-11-28T01:44:16.064Z,99395.30
2022-11-28T01:44:25.952Z,99396.14
2022-11-28T01:44:36.072Z,99396.81
2022-11-28T01:44:45.991Z,99395.48
2022-11-28T01:44:55.961Z,99396.17
2022-11-28T01:45:05.967Z,99391.70
2022-11-28T01:45:16.015Z,99391.62
2022-11-28T01:45:26.078Z,99393.66
2022-11-28T01:45:35.987Z,99390.28
2022-11-28T01:45:45.964Z,99388.26
2022-11-28T01:45:56.022Z,99387.92
2022-11-28T01:46:05.968Z,99390.74
2022-11-28T01:46:15.979Z,99387.19
2022-11-28T01:46:26.052Z,99386.26
2022-11-28T01:46:36.031Z,99390.25
2022-11-28T01:46:46.080Z,99389.27
2022-11-28T01:46:56.031Z,99390.98
2022-11-28T01:47:06.049Z,99392.47
2022-11-28T01:47:16.074Z,99385.81
2022-11-28T01:47:26.082Z,99386.91
2022-11-28T01:47:36.068Z,99387.34
2022-11-28T01:47:46.004Z,99385.23
2022-11-28T01:47:56.026Z,99384.88
2022-11-28T01:48:05.998Z,99388.05
2022-11-28T01:48:16.023Z,99385.05
2022-11-28T01:48:26.082Z,99390.09
2022-11-28T01:48:36.090Z,99389.69
2022-11-28T01:48:46.057Z,99384.64
2022-11-28T01:48:56.033Z,99384.80
2022-11-28T01:49:06.069Z,99380.99
2022-11-28T01:49:15.964Z,99385.12
2022-11-28T01:49:25.965Z,99384.84
2022-11-28T01:49:36.015Z,99384.66
2022-11-28T01:49:46.021Z,99384.98
2022-11-28T01:49:56.053Z,99381.86
2022-11-28T01:50:05.987Z,99384.77
2022-11-28T01:50:16.013Z,99379.17
2022-11-28T01:50:25.969Z,99381.64
2022-11-28T01:50:36.065Z,99382.84
2022-11-28T01:50:46.026Z,99379.09
2022-11-28T01:50:56.049Z,99381.27
2022-11-28T01:51:06.012Z,99385.44
2022-11-28T01:51:16.072Z,99380.03
2022-11-28T01:51:26.050Z,99381.30
2022-11-28T01:51:36.033Z,99378.66
2022-11-28T01:51:46.021Z,99383.65
2022-11-28T01:51:56.021Z,99382.78
2022-11-28T01:52:06.043Z,99382.23
2022-11-28T01:52:16.061Z,99380.73
2022-11-28T01:52:26.031Z,99385.08
2022-11-28T01:52:36.099Z,99384.26
2022-11-28T01:52:45.969Z,99386.02
2022-11-28T01:52:56.024Z,99378.17
2022-11-28T01:53:05.952Z,99377.84
2022-11-28T01:53:15.970Z,99382.39
2022-11-28T01:53:26.046Z,99379.91
2022-11-28T01:53:36.048Z,99376.95
2022-11-28T01:53:46.082Z,99383.36
2022-11-28T01:53:56.038Z,99380.31
2022-11-28T01:54:06.026Z,99378.81
2022-11-28T01:54:16.037Z,99374.84
2022-11-28T01:54:26.013Z,99375.88
2022-11-28T01:54:36.064Z,99380.48
2022-11-28T01:54:46.067Z,99380.15
2022-11-28T01:54:56.017Z,99378.62
2022-11-28T01:55:06.026Z,99373.94
2022-11-28T01:55:16.063Z,99377.80
2022-11-28T01:55:26.073Z,99382.47
2022-11-28T01:55:35.983Z,99379.12
2022-11-28T01:55:45.975Z,99379.42
2022-11-28T01:55:55.987Z,99383.84
2022-11-28T01:56:05.985Z,99378.53
2022-11-28T01:56:16.041Z,99379.58
2022-11-28T01:56:25.971Z,99376.34
2022-11-28T01:56:36.004Z,99379.30
2022-11-28T01:56:46.023Z,99373.88
2022-11-28T01:56:56.011Z,99372.41
2022-11-28T01:57:06.080Z,99373.31
2022-11-28T01:57:15.984Z,99371.05
2022-11-28T01:57:26.000Z,99373.41